sensor_id;sensor_type;location;lat;lon;timestamp;temperature;humidity
44517;DHT22;30223;17.182;-96.766;2023-02-23T00:01:49;25.80;45.40
44517;DHT22;30223;17.182;-96.766;2023-02-23T00:04:16;25.80;45.10
44517;DHT22;30223;17.182;-96.766;2023-02-23T00:06:45;25.80;45.00
44517;DHT22;30223;17.182;-96.766;2023-02-23T00:09:12;25.80;45.10
44517;DHT22;30223;17.182;-96.766;2023-02-23T00:11:52;25.80;45.20
44517;DHT22;30223;17.182;-96.766;2023-02-23T00:14:20;25.80;45.00
44517;DHT22;30223;17.182;-96.766;2023-02-23T00:16:48;25.70;44.90
44517;DHT22;30223;17.182;-96.766;2023-02-23T00:19:14;25.70;44.90
44517;DHT22;30223;17.182;-96.766;2023-02-23T00:21:42;25.70;44.90
44517;DHT22;30223;17.182;-96.766;2023-02-23T00:24:12;25.70;44.90
44517;DHT22;30223;17.182;-96.766;2023-02-23T00:26:45;25.70;44.80
44517;DHT22;30223;17.182;-96.766;2023-02-23T00:29:17;25.70;44.80
44517;DHT22;30223;17.182;-96.766;2023-02-23T00:31:46;25.70;44.70
44517;DHT22;30223;17.182;-96.766;2023-02-23T00:34:15;25.60;44.60
44517;DHT22;30223;17.182;-96.766;2023-02-23T00:36:42;25.60;44.30
44517;DHT22;30223;17.182;-96.766;2023-02-23T00:39:10;25.60;44.30
44517;DHT22;30223;17.182;-96.766;2023-02-23T00:41:47;25.60;44.40
44517;DHT22;30223;17.182;-96.766;2023-02-23T00:44:14;25.60;44.30
44517;DHT22;30223;17.182;-96.766;2023-02-23T00:46:42;25.60;44.30
44517;DHT22;30223;17.182;-96.766;2023-02-23T00:49:11;25.50;44.30
44517;DHT22;30223;17.182;-96.766;2023-02-23T00:51:38;25.50;44.30
44517;DHT22;30223;17.182;-96.766;2023-02-23T00:54:06;25.50;44.20
44517;DHT22;30223;17.182;-96.766;2023-02-23T00:56:33;25.50;44.20
44517;DHT22;30223;17.182;-96.766;2023-02-23T00:59:00;25.50;44.20
44517;DHT22;30223;17.182;-96.766;2023-02-23T01:01:26;25.50;44.10
44517;DHT22;30223;17.182;-96.766;2023-02-23T01:03:53;25.50;44.00
44517;DHT22;30223;17.182;-96.766;2023-02-23T01:06:20;25.50;44.10
44517;DHT22;30223;17.182;-96.766;2023-02-23T01:08:48;25.40;44.10
44517;DHT22;30223;17.182;-96.766;2023-02-23T01:11:20;25.40;44.10
44517;DHT22;30223;17.182;-96.766;2023-02-23T01:13:48;25.40;44.10
44517;DHT22;30223;17.182;-96.766;2023-02-23T01:16:17;25.40;44.20
44517;DHT22;30223;17.182;-96.766;2023-02-23T01:18:44;25.40;44.10
44517;DHT22;30223;17.182;-96.766;2023-02-23T01:21:19;25.40;44.10
44517;DHT22;30223;17.182;-96.766;2023-02-23T01:23:49;25.40;44.10
44517;DHT22;30223;17.182;-96.766;2023-02-23T01:26:19;25.30;44.10
44517;DHT22;30223;17.182;-96.766;2023-02-23T01:29:09;25.40;44.20
44517;DHT22;30223;17.182;-96.766;2023-02-23T01:31:38;25.30;44.10
44517;DHT22;30223;17.182;-96.766;2023-02-23T01:34:05;25.30;44.10
44517;DHT22;30223;17.182;-96.766;2023-02-23T01:36:35;25.30;44.20
44517;DHT22;30223;17.182;-96.766;2023-02-23T01:39:04;25.30;44.20
44517;DHT22;30223;17.182;-96.766;2023-02-23T01:41:34;25.30;44.20
44517;DHT22;30223;17.182;-96.766;2023-02-23T01:44:07;25.30;44.30
44517;DHT22;30223;17.182;-96.766;2023-02-23T01:46:38;25.20;44.20
44517;DHT22;30223;17.182;-96.766;2023-02-23T01:49:07;25.30;44.20
44517;DHT22;30223;17.182;-96.766;2023-02-23T01:51:39;25.20;44.10
44517;DHT22;30223;17.182;-96.766;2023-02-23T01:54:17;25.20;44.10
44517;DHT22;30223;17.182;-96.766;2023-02-23T01:56:48;25.20;44.10
44517;DHT22;30223;17.182;-96.766;2023-02-23T01:59:27;25.20;44.10
44517;DHT22;30223;17.182;-96.766;2023-02-23T02:01:55;25.20;44.20
44517;DHT22;30223;17.182;-96.766;2023-02-23T02:04:23;25.20;44.20
44517;DHT22;30223;17.182;-96.766;2023-02-23T02:06:52;25.20;44.20
44517;DHT22;30223;17.182;-96.766;2023-02-23T02:09:22;25.20;44.30
44517;DHT22;30223;17.182;-96.766;2023-02-23T02:11:53;25.10;44.20
44517;DHT22;30223;17.182;-96.766;2023-02-23T02:14:25;25.10;44.30
44517;DHT22;30223;17.182;-96.766;2023-02-23T02:20:06;25.10;44.40
44517;DHT22;30223;17.182;-96.766;2023-02-23T02:36:48;25.00;44.50
44517;DHT22;30223;17.182;-96.766;2023-02-23T02:47:18;25.00;44.60
44517;DHT22;30223;17.182;-96.766;2023-02-23T02:49:49;25.00;44.60
44517;DHT22;30223;17.182;-96.766;2023-02-23T02:52:31;24.90;44.50
44517;DHT22;30223;17.182;-96.766;2023-02-23T02:55:06;24.90;44.60
44517;DHT22;30223;17.182;-96.766;2023-02-23T02:57:37;24.90;44.60
44517;DHT22;30223;17.182;-96.766;2023-02-23T03:00:06;24.90;44.60
44517;DHT22;30223;17.182;-96.766;2023-02-23T03:02:51;24.90;44.60
44517;DHT22;30223;17.182;-96.766;2023-02-23T03:05:41;24.80;44.60
44517;DHT22;30223;17.182;-96.766;2023-02-23T03:08:49;24.90;44.60
44517;DHT22;30223;17.182;-96.766;2023-02-23T03:11:53;24.80;44.60
44517;DHT22;30223;17.182;-96.766;2023-02-23T03:14:58;24.80;44.60
44517;DHT22;30223;17.182;-96.766;2023-02-23T03:17:46;24.80;44.60
44517;DHT22;30223;17.182;-96.766;2023-02-23T03:26:39;24.80;44.70
44517;DHT22;30223;17.182;-96.766;2023-02-23T03:29:57;24.70;44.70
44517;DHT22;30223;17.182;-96.766;2023-02-23T03:32:53;24.70;44.70
44517;DHT22;30223;17.182;-96.766;2023-02-23T03:36:03;24.70;44.70
44517;DHT22;30223;17.182;-96.766;2023-02-23T03:41:43;24.60;44.70
44517;DHT22;30223;17.182;-96.766;2023-02-23T03:44:35;24.60;44.70
44517;DHT22;30223;17.182;-96.766;2023-02-23T03:47:23;24.60;44.70
44517;DHT22;30223;17.182;-96.766;2023-02-23T03:53:37;24.60;44.70
44517;DHT22;30223;17.182;-96.766;2023-02-23T03:56:25;24.60;44.80
44517;DHT22;30223;17.182;-96.766;2023-02-23T03:59:14;24.60;44.80
44517;DHT22;30223;17.182;-96.766;2023-02-23T04:02:00;24.50;44.70
44517;DHT22;30223;17.182;-96.766;2023-02-23T04:04:47;24.50;44.80
44517;DHT22;30223;17.182;-96.766;2023-02-23T04:07:34;24.50;44.80
44517;DHT22;30223;17.182;-96.766;2023-02-23T04:10:22;24.50;44.80
44517;DHT22;30223;17.182;-96.766;2023-02-23T04:13:13;24.50;44.80
44517;DHT22;30223;17.182;-96.766;2023-02-23T04:15:58;24.50;44.80
44517;DHT22;30223;17.182;-96.766;2023-02-23T04:18:28;24.40;44.80
44517;DHT22;30223;17.182;-96.766;2023-02-23T04:20:56;24.40;44.80
44517;DHT22;30223;17.182;-96.766;2023-02-23T04:23:23;24.40;44.80
44517;DHT22;30223;17.182;-96.766;2023-02-23T04:25:51;24.40;45.50
44517;DHT22;30223;17.182;-96.766;2023-02-23T04:28:21;24.40;44.80
44517;DHT22;30223;17.182;-96.766;2023-02-23T04:30:48;24.40;44.80
44517;DHT22;30223;17.182;-96.766;2023-02-23T04:33:15;24.30;44.80
44517;DHT22;30223;17.182;-96.766;2023-02-23T04:35:41;24.30;44.80
44517;DHT22;30223;17.182;-96.766;2023-02-23T04:38:08;24.30;44.80
44517;DHT22;30223;17.182;-96.766;2023-02-23T04:40:35;24.30;44.80
44517;DHT22;30223;17.182;-96.766;2023-02-23T04:43:02;24.30;44.80
44517;DHT22;30223;17.182;-96.766;2023-02-23T04:45:28;24.30;44.90
44517;DHT22;30223;17.182;-96.766;2023-02-23T04:47:55;24.30;44.10
44517;DHT22;30223;17.182;-96.766;2023-02-23T04:50:22;24.20;43.00
44517;DHT22;30223;17.182;-96.766;2023-02-23T04:52:49;24.20;43.20
44517;DHT22;30223;17.182;-96.766;2023-02-23T04:55:22;24.20;43.20
44517;DHT22;30223;17.182;-96.766;2023-02-23T04:57:49;24.10;43.30
44517;DHT22;30223;17.182;-96.766;2023-02-23T05:00:17;24.20;44.90
44517;DHT22;30223;17.182;-96.766;2023-02-23T05:02:44;24.20;44.10
44517;DHT22;30223;17.182;-96.766;2023-02-23T05:05:11;24.20;43.80
44517;DHT22;30223;17.182;-96.766;2023-02-23T05:07:38;24.20;43.80
44517;DHT22;30223;17.182;-96.766;2023-02-23T05:10:05;24.20;44.00
44517;DHT22;30223;17.182;-96.766;2023-02-23T05:12:32;24.10;43.90
44517;DHT22;30223;17.182;-96.766;2023-02-23T05:14:59;24.10;44.50
44517;DHT22;30223;17.182;-96.766;2023-02-23T05:17:26;24.10;45.30
44517;DHT22;30223;17.182;-96.766;2023-02-23T05:19:52;24.10;45.80
44517;DHT22;30223;17.182;-96.766;2023-02-23T05:22:19;24.10;46.50
44517;DHT22;30223;17.182;-96.766;2023-02-23T05:24:46;24.00;46.70
44517;DHT22;30223;17.182;-96.766;2023-02-23T05:27:12;24.00;47.00
44517;DHT22;30223;17.182;-96.766;2023-02-23T05:29:39;24.00;46.90
44517;DHT22;30223;17.182;-96.766;2023-02-23T05:32:06;24.10;46.90
44517;DHT22;30223;17.182;-96.766;2023-02-23T05:34:33;24.00;46.80
44517;DHT22;30223;17.182;-96.766;2023-02-23T05:37:00;24.00;46.70
44517;DHT22;30223;17.182;-96.766;2023-02-23T05:39:27;24.00;46.50
44517;DHT22;30223;17.182;-96.766;2023-02-23T05:41:53;24.00;46.40
44517;DHT22;30223;17.182;-96.766;2023-02-23T05:44:20;24.00;46.40
44517;DHT22;30223;17.182;-96.766;2023-02-23T05:46:46;24.00;46.30
44517;DHT22;30223;17.182;-96.766;2023-02-23T05:49:13;24.00;46.30
44517;DHT22;30223;17.182;-96.766;2023-02-23T05:51:40;23.90;46.20
44517;DHT22;30223;17.182;-96.766;2023-02-23T05:54:07;23.90;46.20
44517;DHT22;30223;17.182;-96.766;2023-02-23T05:56:34;23.90;46.10
44517;DHT22;30223;17.182;-96.766;2023-02-23T05:59:01;23.90;46.10
44517;DHT22;30223;17.182;-96.766;2023-02-23T06:01:30;23.90;46.00
44517;DHT22;30223;17.182;-96.766;2023-02-23T06:03:57;23.90;46.00
44517;DHT22;30223;17.182;-96.766;2023-02-23T06:06:24;23.90;46.50
44517;DHT22;30223;17.182;-96.766;2023-02-23T06:08:51;23.90;45.90
44517;DHT22;30223;17.182;-96.766;2023-02-23T06:11:18;23.80;45.80
44517;DHT22;30223;17.182;-96.766;2023-02-23T06:13:44;23.80;45.70
44517;DHT22;30223;17.182;-96.766;2023-02-23T06:16:11;23.80;45.80
44517;DHT22;30223;17.182;-96.766;2023-02-23T06:18:38;23.80;45.70
44517;DHT22;30223;17.182;-96.766;2023-02-23T06:21:05;23.80;45.70
44517;DHT22;30223;17.182;-96.766;2023-02-23T06:23:32;23.80;45.70
44517;DHT22;30223;17.182;-96.766;2023-02-23T06:25:59;23.80;46.20
44517;DHT22;30223;17.182;-96.766;2023-02-23T06:28:27;23.90;46.50
44517;DHT22;30223;17.182;-96.766;2023-02-23T06:30:54;23.90;46.00
44517;DHT22;30223;17.182;-96.766;2023-02-23T06:33:22;23.90;46.10
44517;DHT22;30223;17.182;-96.766;2023-02-23T06:35:49;23.80;46.30
44517;DHT22;30223;17.182;-96.766;2023-02-23T06:38:16;23.80;46.40
44517;DHT22;30223;17.182;-96.766;2023-02-23T06:40:42;23.80;46.50
44517;DHT22;30223;17.182;-96.766;2023-02-23T06:43:09;23.80;46.50
44517;DHT22;30223;17.182;-96.766;2023-02-23T06:45:36;23.80;46.60
44517;DHT22;30223;17.182;-96.766;2023-02-23T06:48:03;23.70;46.60
44517;DHT22;30223;17.182;-96.766;2023-02-23T06:50:30;23.70;46.40
44517;DHT22;30223;17.182;-96.766;2023-02-23T06:52:57;23.70;46.40
44517;DHT22;30223;17.182;-96.766;2023-02-23T06:55:24;23.70;46.30
44517;DHT22;30223;17.182;-96.766;2023-02-23T06:57:50;23.70;46.20
44517;DHT22;30223;17.182;-96.766;2023-02-23T07:00:19;23.60;46.10
44517;DHT22;30223;17.182;-96.766;2023-02-23T07:02:46;23.70;46.10
44517;DHT22;30223;17.182;-96.766;2023-02-23T07:05:13;23.60;46.00
44517;DHT22;30223;17.182;-96.766;2023-02-23T07:07:40;23.60;46.00
44517;DHT22;30223;17.182;-96.766;2023-02-23T07:10:07;23.60;46.00
44517;DHT22;30223;17.182;-96.766;2023-02-23T07:12:34;23.60;46.00
44517;DHT22;30223;17.182;-96.766;2023-02-23T07:15:00;23.50;45.90
44517;DHT22;30223;17.182;-96.766;2023-02-23T07:17:29;23.60;46.00
44517;DHT22;30223;17.182;-96.766;2023-02-23T07:19:56;23.50;46.00
44517;DHT22;30223;17.182;-96.766;2023-02-23T07:22:23;23.50;46.00
44517;DHT22;30223;17.182;-96.766;2023-02-23T07:24:52;23.50;46.00
44517;DHT22;30223;17.182;-96.766;2023-02-23T07:27:19;23.50;46.00
44517;DHT22;30223;17.182;-96.766;2023-02-23T07:29:45;23.50;46.00
44517;DHT22;30223;17.182;-96.766;2023-02-23T07:32:12;23.40;46.00
44517;DHT22;30223;17.182;-96.766;2023-02-23T07:34:39;23.40;46.00
44517;DHT22;30223;17.182;-96.766;2023-02-23T07:37:05;23.40;46.00
44517;DHT22;30223;17.182;-96.766;2023-02-23T07:39:32;23.40;46.00
44517;DHT22;30223;17.182;-96.766;2023-02-23T07:41:59;23.40;46.00
44517;DHT22;30223;17.182;-96.766;2023-02-23T07:44:25;23.40;46.00
44517;DHT22;30223;17.182;-96.766;2023-02-23T07:46:52;23.40;46.00
44517;DHT22;30223;17.182;-96.766;2023-02-23T07:49:19;23.30;46.00
44517;DHT22;30223;17.182;-96.766;2023-02-23T07:51:45;23.30;46.00
44517;DHT22;30223;17.182;-96.766;2023-02-23T07:54:12;23.30;46.00
44517;DHT22;30223;17.182;-96.766;2023-02-23T07:56:39;23.30;46.00
44517;DHT22;30223;17.182;-96.766;2023-02-23T07:59:06;23.30;46.10
44517;DHT22;30223;17.182;-96.766;2023-02-23T08:01:33;23.30;46.10
44517;DHT22;30223;17.182;-96.766;2023-02-23T08:04:00;23.30;46.00
44517;DHT22;30223;17.182;-96.766;2023-02-23T08:06:27;23.20;46.00
44517;DHT22;30223;17.182;-96.766;2023-02-23T08:08:57;23.30;46.00
44517;DHT22;30223;17.182;-96.766;2023-02-23T08:11:24;23.20;46.00
44517;DHT22;30223;17.182;-96.766;2023-02-23T08:13:53;23.20;46.00
44517;DHT22;30223;17.182;-96.766;2023-02-23T08:16:27;23.20;46.00
44517;DHT22;30223;17.182;-96.766;2023-02-23T08:18:55;23.20;46.00
44517;DHT22;30223;17.182;-96.766;2023-02-23T08:21:23;23.20;46.00
44517;DHT22;30223;17.182;-96.766;2023-02-23T08:23:50;23.10;45.90
44517;DHT22;30223;17.182;-96.766;2023-02-23T08:26:16;23.10;46.00
44517;DHT22;30223;17.182;-96.766;2023-02-23T08:28:43;23.10;46.00
44517;DHT22;30223;17.182;-96.766;2023-02-23T08:31:12;23.10;46.00
44517;DHT22;30223;17.182;-96.766;2023-02-23T08:33:41;23.10;46.00
44517;DHT22;30223;17.182;-96.766;2023-02-23T08:36:08;23.10;46.00
44517;DHT22;30223;17.182;-96.766;2023-02-23T08:38:35;23.10;46.00
44517;DHT22;30223;17.182;-96.766;2023-02-23T08:41:03;23.00;45.90
44517;DHT22;30223;17.182;-96.766;2023-02-23T08:43:30;23.10;46.00
44517;DHT22;30223;17.182;-96.766;2023-02-23T08:46:00;23.10;46.00
44517;DHT22;30223;17.182;-96.766;2023-02-23T08:48:26;23.00;45.90
44517;DHT22;30223;17.182;-96.766;2023-02-23T08:50:57;23.00;45.90
44517;DHT22;30223;17.182;-96.766;2023-02-23T08:53:24;23.00;45.90
44517;DHT22;30223;17.182;-96.766;2023-02-23T08:55:56;23.00;45.90
44517;DHT22;30223;17.182;-96.766;2023-02-23T08:58:23;23.00;46.00
44517;DHT22;30223;17.182;-96.766;2023-02-23T09:00:50;23.00;46.00
44517;DHT22;30223;17.182;-96.766;2023-02-23T09:03:17;23.00;46.00
44517;DHT22;30223;17.182;-96.766;2023-02-23T09:05:44;22.90;45.90
44517;DHT22;30223;17.182;-96.766;2023-02-23T09:08:11;22.90;46.00
44517;DHT22;30223;17.182;-96.766;2023-02-23T09:10:39;22.90;46.00
44517;DHT22;30223;17.182;-96.766;2023-02-23T09:13:10;22.90;46.00
44517;DHT22;30223;17.182;-96.766;2023-02-23T09:15:38;22.90;46.00
44517;DHT22;30223;17.182;-96.766;2023-02-23T09:18:06;22.90;46.00
44517;DHT22;30223;17.182;-96.766;2023-02-23T09:20:33;22.90;46.00
44517;DHT22;30223;17.182;-96.766;2023-02-23T09:23:00;22.80;46.00
44517;DHT22;30223;17.182;-96.766;2023-02-23T09:25:27;22.80;46.00
44517;DHT22;30223;17.182;-96.766;2023-02-23T09:27:55;22.80;46.00
44517;DHT22;30223;17.182;-96.766;2023-02-23T09:30:26;22.80;46.00
44517;DHT22;30223;17.182;-96.766;2023-02-23T09:32:53;22.80;46.00
44517;DHT22;30223;17.182;-96.766;2023-02-23T09:35:22;22.80;46.00
44517;DHT22;30223;17.182;-96.766;2023-02-23T09:37:51;22.80;46.10
44517;DHT22;30223;17.182;-96.766;2023-02-23T09:40:24;22.80;46.10
44517;DHT22;30223;17.182;-96.766;2023-02-23T09:48:25;22.70;46.10
44517;DHT22;30223;17.182;-96.766;2023-02-23T09:50:55;22.70;46.10
44517;DHT22;30223;17.182;-96.766;2023-02-23T09:53:41;22.60;46.10
44517;DHT22;30223;17.182;-96.766;2023-02-23T09:56:20;22.60;46.00
44517;DHT22;30223;17.182;-96.766;2023-02-23T09:58:49;22.60;46.10
44517;DHT22;30223;17.182;-96.766;2023-02-23T10:01:42;22.60;46.10
44517;DHT22;30223;17.182;-96.766;2023-02-23T10:04:34;22.60;46.10
44517;DHT22;30223;17.182;-96.766;2023-02-23T10:21:11;22.50;46.20
44517;DHT22;30223;17.182;-96.766;2023-02-23T10:26:24;22.40;46.10
44517;DHT22;30223;17.182;-96.766;2023-02-23T10:28:54;22.40;46.80
44517;DHT22;30223;17.182;-96.766;2023-02-23T10:31:44;22.40;46.20
44517;DHT22;30223;17.182;-96.766;2023-02-23T10:34:15;22.40;46.20
44517;DHT22;30223;17.182;-96.766;2023-02-23T10:39:18;22.30;46.20
44517;DHT22;30223;17.182;-96.766;2023-02-23T10:41:45;22.30;46.20
44517;DHT22;30223;17.182;-96.766;2023-02-23T10:44:21;22.30;46.20
44517;DHT22;30223;17.182;-96.766;2023-02-23T10:47:11;22.30;46.20
44517;DHT22;30223;17.182;-96.766;2023-02-23T10:49:53;22.30;46.20
44517;DHT22;30223;17.182;-96.766;2023-02-23T10:52:45;22.30;46.20
44517;DHT22;30223;17.182;-96.766;2023-02-23T10:55:28;22.30;46.30
44517;DHT22;30223;17.182;-96.766;2023-02-23T10:58:13;22.20;46.20
44517;DHT22;30223;17.182;-96.766;2023-02-23T11:00:55;22.20;46.20
44517;DHT22;30223;17.182;-96.766;2023-02-23T11:03:46;22.20;46.90
44517;DHT22;30223;17.182;-96.766;2023-02-23T11:06:48;22.20;46.20
44517;DHT22;30223;17.182;-96.766;2023-02-23T11:09:29;22.20;46.30
44517;DHT22;30223;17.182;-96.766;2023-02-23T11:12:24;22.20;46.30
44517;DHT22;30223;17.182;-96.766;2023-02-23T11:14:55;22.10;46.20
44517;DHT22;30223;17.182;-96.766;2023-02-23T11:20:17;22.10;46.30
44517;DHT22;30223;17.182;-96.766;2023-02-23T11:22:46;22.10;46.30
44517;DHT22;30223;17.182;-96.766;2023-02-23T11:25:31;22.00;46.30
44517;DHT22;30223;17.182;-96.766;2023-02-23T11:27:58;22.00;46.30
44517;DHT22;30223;17.182;-96.766;2023-02-23T11:30:32;22.00;46.30
44517;DHT22;30223;17.182;-96.766;2023-02-23T11:33:03;22.00;46.30
44517;DHT22;30223;17.182;-96.766;2023-02-23T11:35:37;22.00;46.30
44517;DHT22;30223;17.182;-96.766;2023-02-23T11:38:23;21.90;46.30
44517;DHT22;30223;17.182;-96.766;2023-02-23T11:41:03;21.90;46.30
44517;DHT22;30223;17.182;-96.766;2023-02-23T11:43:30;21.90;46.30
44517;DHT22;30223;17.182;-96.766;2023-02-23T11:45:59;21.90;46.30
44517;DHT22;30223;17.182;-96.766;2023-02-23T11:49:42;21.80;46.30
44517;DHT22;30223;17.182;-96.766;2023-02-23T11:51:39;21.80;46.30
44517;DHT22;30223;17.182;-96.766;2023-02-23T11:54:48;21.80;46.30
44517;DHT22;30223;17.182;-96.766;2023-02-23T11:57:09;21.80;46.30
44517;DHT22;30223;17.182;-96.766;2023-02-23T11:59:44;21.80;46.30
44517;DHT22;30223;17.182;-96.766;2023-02-23T12:02:23;21.70;46.30
44517;DHT22;30223;17.182;-96.766;2023-02-23T12:05:16;21.70;46.30
44517;DHT22;30223;17.182;-96.766;2023-02-23T12:08:01;21.70;46.30
44517;DHT22;30223;17.182;-96.766;2023-02-23T12:10:30;21.70;46.30
44517;DHT22;30223;17.182;-96.766;2023-02-23T12:15:59;21.70;46.30
44517;DHT22;30223;17.182;-96.766;2023-02-23T12:26:51;21.60;46.30
44517;DHT22;30223;17.182;-96.766;2023-02-23T12:29:49;21.60;46.30
44517;DHT22;30223;17.182;-96.766;2023-02-23T12:32:23;21.60;46.30
44517;DHT22;30223;17.182;-96.766;2023-02-23T12:37:52;21.50;46.30
44517;DHT22;30223;17.182;-96.766;2023-02-23T12:40:29;21.50;46.30
44517;DHT22;30223;17.182;-96.766;2023-02-23T12:43:23;21.40;46.80
44517;DHT22;30223;17.182;-96.766;2023-02-23T12:46:16;21.50;46.30
44517;DHT22;30223;17.182;-96.766;2023-02-23T12:51:33;21.40;46.30
44517;DHT22;30223;17.182;-96.766;2023-02-23T12:54:01;21.40;46.40
44517;DHT22;30223;17.182;-96.766;2023-02-23T12:59:19;21.30;46.30
44517;DHT22;30223;17.182;-96.766;2023-02-23T13:02:03;21.30;46.30
44517;DHT22;30223;17.182;-96.766;2023-02-23T13:04:59;21.30;46.40
44517;DHT22;30223;17.182;-96.766;2023-02-23T13:19:16;21.20;46.60
44517;DHT22;30223;17.182;-96.766;2023-02-23T13:24:36;21.20;46.60
44517;DHT22;30223;17.182;-96.766;2023-02-23T13:27:34;21.20;46.60
44517;DHT22;30223;17.182;-96.766;2023-02-23T13:30:03;21.10;46.50
44517;DHT22;30223;17.182;-96.766;2023-02-23T13:32:32;21.10;46.50
44517;DHT22;30223;17.182;-96.766;2023-02-23T13:34:59;21.10;46.50
44517;DHT22;30223;17.182;-96.766;2023-02-23T13:37:49;21.10;46.50
44517;DHT22;30223;17.182;-96.766;2023-02-23T13:40:35;21.10;46.50
44517;DHT22;30223;17.182;-96.766;2023-02-23T13:43:14;21.00;46.50
44517;DHT22;30223;17.182;-96.766;2023-02-23T13:48:48;21.00;47.10
44517;DHT22;30223;17.182;-96.766;2023-02-23T13:54:00;21.00;46.50
44517;DHT22;30223;17.182;-96.766;2023-02-23T13:56:40;21.00;46.50
44517;DHT22;30223;17.182;-96.766;2023-02-23T13:59:59;21.00;46.50
44517;DHT22;30223;17.182;-96.766;2023-02-23T14:02:51;20.90;46.50
44517;DHT22;30223;17.182;-96.766;2023-02-23T14:05:00;20.90;46.50
44517;DHT22;30223;17.182;-96.766;2023-02-23T14:07:36;20.90;46.60
44517;DHT22;30223;17.182;-96.766;2023-02-23T14:10:07;20.90;46.50
44517;DHT22;30223;17.182;-96.766;2023-02-23T14:12:42;20.90;46.60
44517;DHT22;30223;17.182;-96.766;2023-02-23T14:21:12;20.90;46.70
44517;DHT22;30223;17.182;-96.766;2023-02-23T14:29:20;20.80;46.60
44517;DHT22;30223;17.182;-96.766;2023-02-23T14:32:03;20.90;46.70
44517;DHT22;30223;17.182;-96.766;2023-02-23T14:34:57;20.80;46.60
44517;DHT22;30223;17.182;-96.766;2023-02-23T14:42:38;20.90;46.70
44517;DHT22;30223;17.182;-96.766;2023-02-23T14:45:22;20.90;46.80
44517;DHT22;30223;17.182;-96.766;2023-02-23T14:48:14;20.80;46.70
44517;DHT22;30223;17.182;-96.766;2023-02-23T14:50:42;20.90;46.80
44517;DHT22;30223;17.182;-96.766;2023-02-23T14:53:27;20.80;46.80
44517;DHT22;30223;17.182;-96.766;2023-02-23T14:55:57;20.80;46.70
44517;DHT22;30223;17.182;-96.766;2023-02-23T14:58:31;20.90;46.80
44517;DHT22;30223;17.182;-96.766;2023-02-23T15:01:00;20.90;46.80
44517;DHT22;30223;17.182;-96.766;2023-02-23T15:03:27;20.90;46.80
44517;DHT22;30223;17.182;-96.766;2023-02-23T15:05:56;20.90;46.80
44517;DHT22;30223;17.182;-96.766;2023-02-23T15:08:26;20.90;46.80
44517;DHT22;30223;17.182;-96.766;2023-02-23T15:11:06;20.90;46.80
44517;DHT22;30223;17.182;-96.766;2023-02-23T15:13:38;20.90;46.90
44517;DHT22;30223;17.182;-96.766;2023-02-23T15:16:27;20.90;46.80
44517;DHT22;30223;17.182;-96.766;2023-02-23T15:18:54;20.90;46.80
44517;DHT22;30223;17.182;-96.766;2023-02-23T15:21:23;20.90;46.90
44517;DHT22;30223;17.182;-96.766;2023-02-23T15:23:56;20.90;47.50
44517;DHT22;30223;17.182;-96.766;2023-02-23T15:26:35;20.90;46.90
44517;DHT22;30223;17.182;-96.766;2023-02-23T15:29:15;21.00;46.90
44517;DHT22;30223;17.182;-96.766;2023-02-23T15:31:44;21.00;46.90
44517;DHT22;30223;17.182;-96.766;2023-02-23T15:34:27;21.00;46.90
44517;DHT22;30223;17.182;-96.766;2023-02-23T15:37:04;21.00;46.90
44517;DHT22;30223;17.182;-96.766;2023-02-23T15:39:51;21.00;46.90
44517;DHT22;30223;17.182;-96.766;2023-02-23T15:42:43;21.00;47.00
44517;DHT22;30223;17.182;-96.766;2023-02-23T15:45:37;21.00;47.00
44517;DHT22;30223;17.182;-96.766;2023-02-23T15:48:13;21.10;47.10
44517;DHT22;30223;17.182;-96.766;2023-02-23T15:50:45;21.10;47.10
44517;DHT22;30223;17.182;-96.766;2023-02-23T15:53:29;21.10;47.10
44517;DHT22;30223;17.182;-96.766;2023-02-23T15:56:24;21.10;47.10
44517;DHT22;30223;17.182;-96.766;2023-02-23T15:58:56;21.10;47.10
44517;DHT22;30223;17.182;-96.766;2023-02-23T16:01:28;21.10;47.20
44517;DHT22;30223;17.182;-96.766;2023-02-23T16:12:12;21.20;47.10
44517;DHT22;30223;17.182;-96.766;2023-02-23T16:14:54;21.20;47.10
44517;DHT22;30223;17.182;-96.766;2023-02-23T16:17:43;21.30;47.20
44517;DHT22;30223;17.182;-96.766;2023-02-23T16:20:25;21.30;47.20
44517;DHT22;30223;17.182;-96.766;2023-02-23T16:22:55;21.30;47.20
44517;DHT22;30223;17.182;-96.766;2023-02-23T16:25:25;21.30;47.20
44517;DHT22;30223;17.182;-96.766;2023-02-23T16:27:54;21.30;47.20
44517;DHT22;30223;17.182;-96.766;2023-02-23T16:30:39;21.30;47.10
44517;DHT22;30223;17.182;-96.766;2023-02-23T16:33:24;21.40;47.20
44517;DHT22;30223;17.182;-96.766;2023-02-23T16:36:14;21.40;47.30
44517;DHT22;30223;17.182;-96.766;2023-02-23T16:38:45;21.40;47.30
44517;DHT22;30223;17.182;-96.766;2023-02-23T16:41:21;21.40;47.30
44517;DHT22;30223;17.182;-96.766;2023-02-23T16:43:49;21.50;47.30
44517;DHT22;30223;17.182;-96.766;2023-02-23T16:46:17;21.50;47.30
44517;DHT22;30223;17.182;-96.766;2023-02-23T16:48:44;21.50;47.30
44517;DHT22;30223;17.182;-96.766;2023-02-23T16:51:15;21.50;47.30
44517;DHT22;30223;17.182;-96.766;2023-02-23T16:53:43;21.50;47.30
44517;DHT22;30223;17.182;-96.766;2023-02-23T16:56:11;21.60;47.40
44517;DHT22;30223;17.182;-96.766;2023-02-23T16:58:41;21.60;47.30
44517;DHT22;30223;17.182;-96.766;2023-02-23T17:01:12;21.60;47.30
44517;DHT22;30223;17.182;-96.766;2023-02-23T17:03:42;21.60;47.30
44517;DHT22;30223;17.182;-96.766;2023-02-23T17:06:10;21.60;47.30
44517;DHT22;30223;17.182;-96.766;2023-02-23T17:08:43;21.70;47.30
44517;DHT22;30223;17.182;-96.766;2023-02-23T17:11:09;21.70;47.30
44517;DHT22;30223;17.182;-96.766;2023-02-23T17:13:36;21.70;47.30
44517;DHT22;30223;17.182;-96.766;2023-02-23T17:16:05;21.70;47.30
44517;DHT22;30223;17.182;-96.766;2023-02-23T17:18:32;21.80;47.30
44517;DHT22;30223;17.182;-96.766;2023-02-23T17:21:01;21.80;47.30
44517;DHT22;30223;17.182;-96.766;2023-02-23T17:23:30;21.80;47.30
44517;DHT22;30223;17.182;-96.766;2023-02-23T17:26:22;21.80;47.30
44517;DHT22;30223;17.182;-96.766;2023-02-23T17:28:50;21.80;47.30
44517;DHT22;30223;17.182;-96.766;2023-02-23T17:31:18;21.80;47.30
44517;DHT22;30223;17.182;-96.766;2023-02-23T17:33:45;21.90;47.40
44517;DHT22;30223;17.182;-96.766;2023-02-23T17:36:16;21.90;47.40
44517;DHT22;30223;17.182;-96.766;2023-02-23T17:38:43;21.90;47.30
44517;DHT22;30223;17.182;-96.766;2023-02-23T17:41:17;22.00;47.30
44517;DHT22;30223;17.182;-96.766;2023-02-23T17:43:44;22.00;47.30
44517;DHT22;30223;17.182;-96.766;2023-02-23T17:46:11;22.00;47.30
44517;DHT22;30223;17.182;-96.766;2023-02-23T17:48:38;22.00;47.30
44517;DHT22;30223;17.182;-96.766;2023-02-23T17:51:10;22.10;47.30